createdAt,value
2018-05-08T00:00:44.352Z,18.00
2018-05-08T00:03:11.851Z,18.00
2018-05-08T00:05:39.354Z,18.30
2018-05-08T00:08:06.862Z,18.40
2018-05-08T00:10:34.379Z,18.20
2018-05-08T00:13:02.122Z,18.20
2018-05-08T00:15:30.412Z,17.80
2018-05-08T00:17:58.668Z,17.50
2018-05-08T00:20:26.160Z,17.40
2018-05-08T00:22:53.654Z,17.20
2018-05-08T00:25:21.161Z,16.90
2018-05-08T00:27:48.688Z,16.50
2018-05-08T00:30:16.229Z,16.30
2018-05-08T00:32:43.742Z,16.10
2018-05-08T00:35:11.254Z,16.10
2018-05-08T00:37:38.758Z,16.00
2018-05-08T00:40:06.291Z,15.80
2018-05-08T00:42:33.794Z,15.60
2018-05-08T00:45:01.276Z,15.40
2018-05-08T00:47:28.785Z,15.30
2018-05-08T00:49:56.284Z,15.20
2018-05-08T00:52:23.775Z,15.10
2018-05-08T00:55:03.737Z,14.90
2018-05-08T00:57:31.247Z,14.90
2018-05-08T00:59:58.765Z,14.80
2018-05-08T01:02:26.497Z,14.80
2018-05-08T01:04:54.000Z,14.70
2018-05-08T01:07:21.523Z,14.60
2018-05-08T01:09:49.187Z,14.50
2018-05-08T01:12:16.701Z,14.50
2018-05-08T01:14:44.328Z,14.40
2018-05-08T01:17:12.609Z,14.40
2018-05-08T01:19:40.168Z,14.40
2018-05-08T01:22:07.686Z,14.30
2018-05-08T01:24:35.179Z,14.30
2018-05-08T01:27:02.667Z,14.30
2018-05-08T01:29:30.943Z,14.10
2018-05-08T01:31:59.201Z,14.10
2018-05-08T01:34:26.687Z,14.10
2018-05-08T01:36:54.945Z,14.00
2018-05-08T01:39:22.449Z,14.00
2018-05-08T01:41:50.724Z,13.90
2018-05-08T01:44:18.999Z,13.90
2018-05-08T01:46:47.263Z,13.80
2018-05-08T01:49:14.775Z,13.80
2018-05-08T01:51:42.301Z,13.80
2018-05-08T01:54:10.584Z,13.70
2018-05-08T01:56:38.094Z,13.70
2018-05-08T01:59:05.600Z,13.60
2018-05-08T02:01:33.112Z,13.50
2018-05-08T02:04:00.627Z,13.50
2018-05-08T02:06:28.893Z,13.50
2018-05-08T02:08:56.403Z,13.50
2018-05-08T02:11:23.916Z,13.50
2018-05-08T02:13:51.434Z,13.50
2018-05-08T02:16:18.960Z,13.50
2018-05-08T02:18:46.473Z,13.50
2018-05-08T02:21:13.967Z,13.40
2018-05-08T02:23:41.470Z,13.40
2018-05-08T02:26:08.969Z,13.20
2018-05-08T02:28:36.511Z,13.10
2018-05-08T02:31:04.022Z,13.10
2018-05-08T02:33:31.523Z,13.10
2018-05-08T02:35:59.785Z,13.10
2018-05-08T02:38:27.299Z,13.00
2018-05-08T02:40:54.791Z,13.10
2018-05-08T02:43:22.289Z,13.10
2018-05-08T02:45:50.570Z,13.20
2018-05-08T02:48:18.835Z,13.10
2018-05-08T02:50:47.122Z,13.10
2018-05-08T02:53:14.645Z,13.10
2018-05-08T02:55:42.132Z,13.10
2018-05-08T02:58:09.637Z,13.00
2018-05-08T03:00:37.148Z,13.00
2018-05-08T03:03:04.641Z,12.90
2018-05-08T03:05:32.918Z,12.90
2018-05-08T03:08:00.418Z,12.90
2018-05-08T03:10:27.910Z,13.00
2018-05-08T03:12:55.414Z,13.00
2018-05-08T03:15:23.687Z,13.10
2018-05-08T03:17:51.959Z,13.10
2018-05-08T03:20:19.462Z,13.10
2018-05-08T03:22:46.960Z,13.10
2018-05-08T03:25:14.462Z,13.10
2018-05-08T03:27:42.731Z,13.00
2018-05-08T03:30:10.242Z,12.90
2018-05-08T03:32:37.757Z,13.00
2018-05-08T03:35:05.285Z,13.00
2018-05-08T03:37:32.793Z,12.90
2018-05-08T03:40:01.064Z,12.70
2018-05-08T03:42:28.610Z,12.70
2018-05-08T03:44:56.138Z,12.70
2018-05-08T03:47:23.645Z,12.60
2018-05-08T03:49:51.152Z,12.60
2018-05-08T03:52:18.674Z,12.40
2018-05-08T03:54:46.194Z,12.40
2018-05-08T03:57:13.688Z,12.40
2018-05-08T03:59:41.182Z,12.40
2018-05-08T04:02:21.262Z,12.50
2018-05-08T04:05:00.632Z,12.50
2018-05-08T04:07:39.985Z,12.60
2018-05-08T04:10:07.507Z,12.50
2018-05-08T04:12:36.320Z,12.50
2018-05-08T04:15:03.877Z,12.40
2018-05-08T04:17:31.360Z,12.30
2018-05-08T04:19:58.863Z,12.40
2018-05-08T04:22:27.133Z,12.40
2018-05-08T04:24:55.407Z,12.30
2018-05-08T04:27:22.925Z,12.30
2018-05-08T04:29:50.433Z,12.20
2018-05-08T04:32:17.929Z,12.20
2018-05-08T04:34:45.437Z,12.20
2018-05-08T04:37:12.952Z,12.10
2018-05-08T04:39:40.461Z,12.10
2018-05-08T04:42:07.966Z,12.10
2018-05-08T04:44:36.245Z,12.10
2018-05-08T04:47:04.541Z,12.10
2018-05-08T04:49:32.037Z,12.10
2018-05-08T04:51:59.531Z,12.20
2018-05-08T04:54:27.044Z,12.20
2018-05-08T04:56:54.557Z,12.30
2018-05-08T04:59:22.081Z,12.30
2018-05-08T05:01:49.582Z,12.40
2018-05-08T05:04:17.089Z,12.40
2018-05-08T05:06:44.604Z,12.50
2018-05-08T05:09:12.140Z,12.50
2018-05-08T05:11:39.655Z,12.50
2018-05-08T05:14:07.924Z,12.50
2018-05-08T05:16:35.707Z,12.50
2018-05-08T05:19:03.983Z,12.60
2018-05-08T05:21:31.526Z,12.60
2018-05-08T05:23:59.037Z,12.50
2018-05-08T05:26:26.544Z,12.40
2018-05-08T05:28:54.056Z,12.40
2018-05-08T05:31:21.553Z,12.40
2018-05-08T05:33:49.049Z,12.40
2018-05-08T05:36:16.597Z,12.30
2018-05-08T05:38:44.117Z,12.30
2018-05-08T05:41:11.655Z,12.40
2018-05-08T05:43:39.947Z,12.40
2018-05-08T05:46:07.467Z,12.40
2018-05-08T05:48:34.975Z,12.40
2018-05-08T05:51:03.241Z,12.70
2018-05-08T05:53:31.505Z,13.20
2018-05-08T05:55:59.012Z,13.20
2018-05-08T05:58:26.521Z,13.50
2018-05-08T06:00:54.037Z,13.90
2018-05-08T06:03:21.557Z,14.20
2018-05-08T06:05:49.084Z,14.40
2018-05-08T06:08:16.603Z,14.50
2018-05-08T06:10:44.881Z,14.80
2018-05-08T06:13:13.151Z,14.70
2018-05-08T06:15:40.651Z,14.70
2018-05-08T06:18:08.157Z,14.70
2018-05-08T06:20:35.643Z,14.90
2018-05-08T06:23:03.151Z,15.20
2018-05-08T06:25:30.656Z,15.30
2018-05-08T06:27:58.169Z,15.50
2018-05-08T06:30:25.710Z,15.70
2018-05-08T06:32:53.219Z,15.90
2018-05-08T06:35:21.514Z,16.30
2018-05-08T06:37:49.037Z,16.30
2018-05-08T06:40:16.547Z,16.20
2018-05-08T06:42:44.038Z,16.20
2018-05-08T06:45:11.569Z,16.40
2018-05-08T06:47:39.067Z,16.50
2018-05-08T06:50:07.340Z,16.80
2018-05-08T06:52:34.845Z,16.70
2018-05-08T06:55:02.399Z,16.90
2018-05-08T06:57:29.845Z,16.90
2018-05-08T06:59:58.116Z,17.00
2018-05-08T07:02:25.637Z,17.00
2018-05-08T07:04:53.131Z,17.10
2018-05-08T07:07:20.629Z,17.10
2018-05-08T07:09:48.123Z,17.30
2018-05-08T07:12:15.637Z,17.50
2018-05-08T07:14:44.227Z,17.90
2018-05-08T07:17:12.506Z,18.10
2018-05-08T07:19:40.770Z,18.20
2018-05-08T07:22:08.285Z,18.20
2018-05-08T07:24:35.783Z,18.20
2018-05-08T07:27:03.289Z,18.30
2018-05-08T07:29:31.551Z,18.10
2018-05-08T07:31:59.835Z,18.30
2018-05-08T07:34:28.093Z,18.50
2018-05-08T07:36:55.605Z,18.50
2018-05-08T07:39:23.141Z,18.70
2018-05-08T07:41:51.405Z,19.20
2018-05-08T07:44:18.905Z,19.10
2018-05-08T07:46:46.423Z,19.30
2018-05-08T07:49:13.941Z,19.40
2018-05-08T07:51:41.552Z,19.40
2018-05-08T07:54:09.002Z,19.60
2018-05-08T07:56:36.499Z,19.70
2018-05-08T07:59:04.771Z,20.00
2018-05-08T08:01:32.267Z,19.90
2018-05-08T08:03:59.843Z,19.90
2018-05-08T08:06:27.353Z,19.90
2018-05-08T08:08:54.856Z,19.80
2018-05-08T08:11:22.357Z,20.00
2018-05-08T08:13:49.862Z,20.00
2018-05-08T08:16:17.541Z,20.20
2018-05-08T08:18:45.816Z,20.20
2018-05-08T08:21:13.640Z,20.10
2018-05-08T08:23:41.159Z,20.20
2018-05-08T08:26:09.444Z,20.40
2018-05-08T08:28:36.956Z,20.30
2018-05-08T08:31:04.462Z,20.50
2018-05-08T08:33:32.727Z,20.80
2018-05-08T08:36:00.998Z,20.80
2018-05-08T08:38:28.506Z,20.80
2018-05-08T08:40:56.080Z,20.90
2018-05-08T08:43:23.541Z,20.90
2018-05-08T08:45:51.040Z,20.70
2018-05-08T08:48:18.529Z,20.70
2018-05-08T08:50:46.795Z,20.90
2018-05-08T08:53:14.295Z,20.80
2018-05-08T08:55:41.805Z,20.80
2018-05-08T08:58:09.310Z,21.00
2018-05-08T09:00:37.567Z,21.60
2018-05-08T09:03:05.072Z,21.60
2018-05-08T09:05:32.600Z,21.80
2018-05-08T09:08:00.094Z,22.10
2018-05-08T09:10:27.686Z,22.20
2018-05-08T09:12:55.227Z,22.10
2018-05-08T09:15:22.740Z,22.20
2018-05-08T09:17:50.243Z,22.20
2018-05-08T09:20:18.514Z,22.40
2018-05-08T09:22:46.774Z,22.70
2018-05-08T09:25:14.277Z,22.70
2018-05-08T09:27:41.812Z,22.80
2018-05-08T09:30:09.288Z,22.90
2018-05-08T09:32:37.551Z,22.60
2018-05-08T09:35:05.074Z,22.60
2018-05-08T09:37:32.572Z,22.40
2018-05-08T09:40:00.093Z,22.40
2018-05-08T09:42:27.597Z,22.60
2018-05-08T09:44:55.743Z,22.50
2018-05-08T09:47:23.240Z,22.70
2018-05-08T09:49:50.742Z,22.80
2018-05-08T09:52:18.257Z,23.00
2018-05-08T09:54:45.754Z,22.90
2018-05-08T09:57:14.033Z,23.20
2018-05-08T09:59:42.295Z,23.10
2018-05-08T10:02:09.827Z,23.10
2018-05-08T10:04:37.333Z,23.00
2018-05-08T10:07:05.605Z,23.40
2018-05-08T10:09:33.106Z,23.40
2018-05-08T10:12:00.598Z,23.60
2018-05-08T10:14:28.099Z,23.70
2018-05-08T10:16:56.392Z,23.60
2018-05-08T10:19:23.891Z,23.50
2018-05-08T10:21:51.425Z,23.60
2018-05-08T10:24:18.942Z,23.40
2018-05-08T10:26:46.483Z,23.20
2018-05-08T10:29:14.714Z,23.50
2018-05-08T10:31:42.974Z,23.40
2018-05-08T10:34:10.493Z,23.40
2018-05-08T10:36:38.005Z,23.70
2018-05-08T10:39:05.536Z,24.10
2018-05-08T10:41:33.109Z,24.30
2018-05-08T10:44:00.680Z,24.60
2018-05-08T10:46:28.170Z,24.40
2018-05-08T10:48:55.682Z,24.60
2018-05-08T10:51:23.190Z,24.50
2018-05-08T10:53:50.692Z,24.50
2018-05-08T10:56:18.196Z,24.10
2018-05-08T10:58:45.712Z,24.20
2018-05-08T11:01:13.975Z,24.60
2018-05-08T11:03:41.474Z,24.60
2018-05-08T11:06:09.210Z,24.60
2018-05-08T11:08:37.497Z,24.80
2018-05-08T11:11:05.020Z,24.80
2018-05-08T11:13:32.526Z,25.00
2018-05-08T11:16:00.047Z,24.90
2018-05-08T11:18:27.540Z,24.80
2018-05-08T11:20:55.056Z,25.10
2018-05-08T11:23:22.609Z,25.10
2018-05-08T11:25:50.220Z,24.80
2018-05-08T11:28:17.713Z,25.10
2018-05-08T11:30:45.232Z,25.20
2018-05-08T11:33:12.750Z,25.30
2018-05-08T11:35:40.268Z,25.50
2018-05-08T11:38:07.777Z,25.70
2018-05-08T11:40:35.267Z,25.80
2018-05-08T11:43:02.779Z,26.00
2018-05-08T11:45:30.262Z,25.90
2018-05-08T11:47:57.779Z,26.00
2018-05-08T11:50:25.279Z,26.20
2018-05-08T11:52:53.545Z,26.60
2018-05-08T11:55:21.023Z,26.60
2018-05-08T11:57:49.289Z,26.20
2018-05-08T12:00:17.569Z,26.30
2018-05-08T12:02:45.943Z,26.50
2018-05-08T12:05:13.395Z,26.50
2018-05-08T12:07:40.909Z,26.70
2018-05-08T12:10:08.404Z,26.90
2018-05-08T12:12:35.907Z,27.00
2018-05-08T12:15:04.188Z,27.40
2018-05-08T12:17:33.328Z,27.60
2018-05-08T12:20:01.730Z,27.60
2018-05-08T12:22:29.238Z,27.40
2018-05-08T12:24:57.537Z,26.70
2018-05-08T12:27:25.048Z,26.70
2018-05-08T12:29:52.589Z,26.90
2018-05-08T12:32:20.097Z,27.10
2018-05-08T12:34:48.372Z,27.50
2018-05-08T12:37:15.892Z,27.40
2018-05-08T12:39:44.160Z,27.70
2018-05-08T12:42:11.693Z,27.70
2018-05-08T12:44:39.194Z,28.00
2018-05-08T12:47:06.725Z,28.10
2018-05-08T12:49:35.112Z,27.70
2018-05-08T12:52:03.385Z,27.60
2018-05-08T12:54:31.665Z,27.70
2018-05-08T12:57:00.497Z,27.50
2018-05-08T12:59:27.986Z,27.50
2018-05-08T13:01:55.538Z,27.60
2018-05-08T13:04:23.036Z,27.70
2018-05-08T13:06:50.530Z,27.70
2018-05-08T13:09:18.791Z,27.70
2018-05-08T13:11:46.318Z,27.80
2018-05-08T13:14:13.817Z,27.70
2018-05-08T13:16:42.986Z,27.70
2018-05-08T13:19:10.557Z,27.80
2018-05-08T13:21:38.112Z,27.80
2018-05-08T13:24:05.657Z,27.70
2018-05-08T13:26:33.921Z,28.00
2018-05-08T13:29:01.436Z,28.00
2018-05-08T13:31:29.699Z,27.90
2018-05-08T13:33:57.209Z,27.80
2018-05-08T13:36:25.505Z,27.80
2018-05-08T13:38:52.999Z,27.80
2018-05-08T13:41:20.495Z,27.70
2018-05-08T13:43:48.014Z,27.90
2018-05-08T13:46:15.513Z,28.10
2018-05-08T13:48:43.025Z,27.90
2018-05-08T13:51:10.556Z,27.80
2018-05-08T13:53:38.079Z,27.90
2018-05-08T13:56:05.606Z,28.00
2018-05-08T13:58:33.889Z,27.60
2018-05-08T14:01:02.197Z,27.60
2018-05-08T14:03:30.758Z,27.70
2018-05-08T14:05:59.038Z,27.90
2018-05-08T14:08:27.301Z,27.90
2018-05-08T14:10:55.583Z,28.10
2018-05-08T14:13:23.849Z,28.20
2018-05-08T14:15:51.364Z,28.20
2018-05-08T14:18:18.872Z,28.20
2018-05-08T14:20:46.382Z,28.20
2018-05-08T14:23:13.884Z,28.90
2018-05-08T14:25:41.486Z,29.40
2018-05-08T14:28:09.765Z,29.30
2018-05-08T14:30:37.256Z,29.20
2018-05-08T14:33:04.772Z,28.40
2018-05-08T14:35:32.282Z,27.50
2018-05-08T14:37:59.772Z,27.10
2018-05-08T14:40:27.290Z,27.20
2018-05-08T14:42:55.583Z,28.30
2018-05-08T14:45:23.113Z,28.30
2018-05-08T14:47:50.614Z,28.60
2018-05-08T14:50:18.112Z,29.30
2018-05-08T14:52:45.645Z,29.70
2018-05-08T14:55:13.151Z,30.10
2018-05-08T14:57:40.639Z,30.20
2018-05-08T15:00:08.149Z,30.30
2018-05-08T15:02:35.642Z,30.00
2018-05-08T15:05:03.165Z,30.20
2018-05-08T15:07:30.679Z,30.40
2018-05-08T15:09:58.173Z,30.00
2018-05-08T15:12:26.435Z,28.30
2018-05-08T15:14:53.925Z,28.30
2018-05-08T15:17:21.507Z,27.70
2018-05-08T15:19:49.023Z,27.50
2018-05-08T15:22:16.539Z,27.20
2018-05-08T15:24:44.055Z,26.70
2018-05-08T15:27:11.556Z,26.40
2018-05-08T15:29:39.069Z,25.50
2018-05-08T15:32:06.579Z,23.70
2018-05-08T15:34:34.109Z,22.00
2018-05-08T15:37:02.383Z,20.20
2018-05-08T15:39:29.895Z,20.20
2018-05-08T15:41:57.407Z,19.80
2018-05-08T15:44:24.915Z,19.60
2018-05-08T15:46:52.451Z,19.50
2018-05-08T15:49:20.727Z,19.50
2018-05-08T15:51:49.017Z,19.40
2018-05-08T15:54:17.272Z,19.20
2018-05-08T15:56:44.751Z,19.20
2018-05-08T15:59:13.019Z,18.90
2018-05-08T16:01:40.508Z,18.90
2018-05-08T16:04:08.783Z,19.40
2018-05-08T16:06:37.059Z,19.30
2018-05-08T16:09:05.359Z,19.10
2018-05-08T16:11:32.955Z,19.10
2018-05-08T16:14:01.179Z,18.90
2018-05-08T16:16:28.697Z,18.90
2018-05-08T16:18:56.387Z,18.80
2018-05-08T16:21:23.913Z,18.80
2018-05-08T16:23:51.466Z,18.90
2018-05-08T16:26:18.994Z,18.90
2018-05-08T16:28:46.498Z,19.00
2018-05-08T16:31:14.029Z,18.90
2018-05-08T16:33:41.524Z,18.80
2018-05-08T16:36:09.081Z,18.80
2018-05-08T16:38:36.681Z,18.70
2018-05-08T16:41:04.179Z,18.60
2018-05-08T16:43:31.704Z,18.70
2018-05-08T16:56:13.512Z,20.10
2018-05-08T16:58:41.817Z,20.20
2018-05-08T17:01:09.379Z,20.20
2018-05-08T17:03:36.990Z,20.30
2018-05-08T17:06:05.263Z,20.20
2018-05-08T17:08:32.851Z,20.20
2018-05-08T17:11:00.356Z,20.10
2018-05-08T17:13:27.862Z,20.00
2018-05-08T17:15:55.372Z,19.70
2018-05-08T17:18:23.641Z,19.40
2018-05-08T17:20:51.919Z,19.00
2018-05-08T17:23:20.179Z,18.80
2018-05-08T17:25:47.700Z,18.80
2018-05-08T17:28:15.197Z,18.60
2018-05-08T17:30:43.495Z,18.50
2018-05-08T17:33:11.068Z,18.50
2018-05-08T17:35:38.601Z,18.60
2018-05-08T17:38:06.102Z,18.50
2018-05-08T17:40:34.387Z,18.40
2018-05-08T17:43:02.704Z,18.30
2018-05-08T17:45:30.225Z,18.30
2018-05-08T17:47:58.492Z,18.10
2018-05-08T17:50:26.026Z,18.10
2018-05-08T17:52:53.535Z,18.10
2018-05-08T17:55:21.808Z,18.10
2018-05-08T17:57:49.314Z,18.10
2018-05-08T18:00:16.838Z,17.80
2018-05-08T18:02:45.121Z,17.00
2018-05-08T18:05:13.430Z,17.10
2018-05-08T18:07:40.942Z,17.10
2018-05-08T18:10:08.461Z,17.20
2018-05-08T18:12:35.974Z,17.00
2018-05-08T18:15:03.541Z,16.90
2018-05-08T18:17:31.078Z,16.80
2018-05-08T18:19:58.597Z,16.70
2018-05-08T18:22:26.112Z,16.50
2018-05-08T18:24:53.637Z,16.50
2018-05-08T18:27:21.145Z,16.50
2018-05-08T18:29:48.655Z,16.60
2018-05-08T18:32:16.192Z,16.70
2018-05-08T18:34:44.469Z,16.60
2018-05-08T18:37:11.969Z,16.60
2018-05-08T18:39:39.504Z,16.50
2018-05-08T18:42:07.038Z,16.40
2018-05-08T18:44:34.548Z,16.30
2018-05-08T18:47:02.847Z,16.30
2018-05-08T18:49:30.432Z,16.20
2018-05-08T18:51:58.663Z,16.30
2018-05-08T18:54:26.939Z,16.30
2018-05-08T18:56:54.467Z,16.30
2018-05-08T18:59:21.977Z,16.20
2018-05-08T19:01:49.494Z,16.10
2018-05-08T19:04:17.022Z,16.10
2018-05-08T19:06:44.539Z,16.00
2018-05-08T19:09:12.067Z,16.10
2018-05-08T19:11:43.315Z,16.10
2018-05-08T19:14:10.836Z,16.10
2018-05-08T19:16:39.123Z,16.20
2018-05-08T19:19:12.939Z,16.20
2018-05-08T19:21:40.468Z,16.20
2018-05-08T19:24:13.675Z,16.20
2018-05-08T19:26:41.215Z,16.10
2018-05-08T19:29:14.248Z,16.00
2018-05-08T19:31:42.560Z,15.90
2018-05-08T19:34:10.085Z,15.90
2018-05-08T19:36:50.028Z,15.70
2018-05-08T19:39:17.522Z,15.70
2018-05-08T19:41:45.034Z,15.60
2018-05-08T19:44:12.548Z,15.60
2018-05-08T19:46:40.068Z,15.70
2018-05-08T19:49:07.575Z,15.70
2018-05-08T19:51:35.093Z,15.70
2018-05-08T19:54:02.598Z,15.70
2018-05-08T19:56:30.118Z,15.70
2018-05-08T19:58:58.413Z,15.50
2018-05-08T20:01:26.683Z,15.60
2018-05-08T20:03:54.362Z,15.50
2018-05-08T20:06:22.641Z,15.60
2018-05-08T20:08:50.218Z,15.50
2018-05-08T20:11:17.693Z,15.50
2018-05-08T20:13:45.202Z,15.50
2018-05-08T20:16:12.718Z,15.50
2018-05-08T20:18:41.008Z,15.40
2018-05-08T20:21:08.503Z,15.40
2018-05-08T20:23:36.017Z,15.40
2018-05-08T20:26:03.558Z,15.40
2018-05-08T20:28:31.080Z,15.40
2018-05-08T20:30:58.598Z,15.40
2018-05-08T20:33:26.876Z,15.20
2018-05-08T20:35:54.384Z,15.20
2018-05-08T20:38:23.249Z,15.00
2018-05-08T20:40:51.511Z,14.90
2018-05-08T20:43:19.020Z,14.90
2018-05-08T20:45:46.541Z,14.80
2018-05-08T20:48:14.837Z,14.60
2018-05-08T20:50:43.126Z,14.60
2018-05-08T20:53:10.637Z,14.50
2018-05-08T20:55:38.180Z,14.50
2018-05-08T20:58:05.671Z,14.60
2018-05-08T21:00:33.178Z,14.60
2018-05-08T21:03:00.688Z,14.60
2018-05-08T21:05:28.218Z,14.60
2018-05-08T21:07:55.726Z,14.60
2018-05-08T21:10:23.245Z,14.50
2018-05-08T21:12:50.764Z,14.50
2018-05-08T21:15:18.265Z,14.50
2018-05-08T21:17:45.847Z,14.50
2018-05-08T21:20:13.316Z,14.50
2018-05-08T21:22:40.826Z,14.50
2018-05-08T21:25:09.102Z,14.40
2018-05-08T21:27:42.144Z,14.50
2018-05-08T21:30:15.329Z,14.50
2018-05-08T21:32:42.778Z,14.40
2018-05-08T21:35:10.280Z,14.30
2018-05-08T21:37:37.791Z,14.30
2018-05-08T21:40:06.444Z,14.20
2018-05-08T21:42:33.959Z,14.10
2018-05-08T21:45:01.478Z,14.10
2018-05-08T21:47:28.978Z,14.10
2018-05-08T21:49:56.496Z,14.20
2018-05-08T21:52:24.009Z,14.30
2018-05-08T21:54:52.447Z,14.30
2018-05-08T21:57:19.958Z,14.30
2018-05-08T21:59:47.476Z,14.30
2018-05-08T22:02:14.971Z,14.20
2018-05-08T22:04:43.230Z,14.30
2018-05-08T22:07:10.856Z,14.30
2018-05-08T22:09:38.367Z,14.30
2018-05-08T22:12:06.640Z,14.30
2018-05-08T22:14:34.916Z,14.30
2018-05-08T22:17:02.426Z,14.30
2018-05-08T22:19:30.096Z,14.40
2018-05-08T22:21:57.609Z,14.40
2018-05-08T22:24:25.131Z,14.30
2018-05-08T22:26:52.683Z,14.30
2018-05-08T22:29:20.933Z,14.30
2018-05-08T22:31:49.244Z,14.30
2018-05-08T22:34:16.786Z,14.30
2018-05-08T22:36:44.295Z,14.30
2018-05-08T22:39:11.794Z,14.30
2018-05-08T22:41:39.299Z,14.30
2018-05-08T22:44:06.822Z,14.30
2018-05-08T22:46:34.316Z,14.30
2018-05-08T22:49:01.822Z,14.30
2018-05-08T22:51:29.330Z,14.40
2018-05-08T22:53:57.602Z,14.50
2018-05-08T22:56:25.876Z,14.50
2018-05-08T22:58:53.375Z,14.50
2018-05-08T23:01:20.906Z,14.50
2018-05-08T23:03:49.186Z,14.40
2018-05-08T23:06:17.471Z,14.30
2018-05-08T23:08:45.813Z,14.30
2018-05-08T23:11:14.037Z,14.30
2018-05-08T23:13:42.315Z,14.30
2018-05-08T23:16:09.851Z,14.20
2018-05-08T23:18:37.370Z,14.30
2018-05-08T23:21:05.642Z,14.20
2018-05-08T23:23:33.141Z,14.20
2018-05-08T23:26:00.645Z,14.20
2018-05-08T23:28:28.913Z,14.30
2018-05-08T23:30:56.416Z,14.30
2018-05-08T23:33:23.913Z,14.30
2018-05-08T23:35:51.421Z,14.30
2018-05-08T23:38:19.711Z,14.30
2018-05-08T23:40:47.983Z,14.30
2018-05-08T23:43:16.277Z,14.30
2018-05-08T23:45:44.540Z,14.30
2018-05-08T23:48:12.823Z,14.20
2018-05-08T23:50:41.101Z,14.20
2018-05-08T23:53:08.597Z,14.20
2018-05-08T23:55:36.152Z,14.10
2018-05-08T23:58:03.629Z,14.00
